sensor_id;sensor_type;location;lat;lon;timestamp;pressure;altitude;pressure_sealevel;temperature;humidity
40650;BME280;26342;42.826;23.992;2023-02-13T00:01:03;97125.53;;;-0.47;100.00
40650;BME280;26342;42.826;23.992;2023-02-13T00:03:29;97126.47;;;-0.48;100.00
40650;BME280;26342;42.826;23.992;2023-02-13T00:05:55;97140.13;;;-0.44;100.00
40650;BME280;26342;42.826;23.992;2023-02-13T00:08:26;97140.28;;;-0.46;100.00
40650;BME280;26342;42.826;23.992;2023-02-13T00:10:54;97134.13;;;-0.54;100.00
40650;BME280;26342;42.826;23.992;2023-02-13T00:13:22;97143.78;;;-0.55;100.00
40650;BME280;26342;42.826;23.992;2023-02-13T00:16:00;97135.63;;;-0.52;100.00
40650;BME280;26342;42.826;23.992;2023-02-13T00:18:27;97141.53;;;-0.50;100.00
40650;BME280;26342;42.826;23.992;2023-02-13T00:21:11;97146.94;;;-0.51;100.00
40650;BME280;26342;42.826;23.992;2023-02-13T00:23:40;97147.34;;;-0.56;100.00
40650;BME280;26342;42.826;23.992;2023-02-13T00:26:12;97146.41;;;-0.65;100.00
40650;BME280;26342;42.826;23.992;2023-02-13T00:28:37;97140.69;;;-0.78;100.00
40650;BME280;26342;42.826;23.992;2023-02-13T00:31:15;97141.31;;;-0.66;100.00
40650;BME280;26342;42.826;23.992;2023-02-13T00:33:45;97145.91;;;-0.68;100.00
40650;BME280;26342;42.826;23.992;2023-02-13T00:36:20;97147.13;;;-0.72;100.00
40650;BME280;26342;42.826;23.992;2023-02-13T00:38:47;97144.66;;;-0.74;100.00
40650;BME280;26342;42.826;23.992;2023-02-13T00:41:14;97156.13;;;-0.75;100.00
40650;BME280;26342;42.826;23.992;2023-02-13T00:43:42;97144.13;;;-0.77;100.00
40650;BME280;26342;42.826;23.992;2023-02-13T00:46:08;97144.00;;;-0.76;100.00
40650;BME280;26342;42.826;23.992;2023-02-13T00:48:34;97146.75;;;-0.77;100.00
40650;BME280;26342;42.826;23.992;2023-02-13T00:51:06;97151.56;;;-0.73;100.00
40650;BME280;26342;42.826;23.992;2023-02-13T00:53:34;97137.63;;;-0.73;100.00
40650;BME280;26342;42.826;23.992;2023-02-13T00:56:00;97139.28;;;-0.72;100.00
40650;BME280;26342;42.826;23.992;2023-02-13T00:58:26;97145.47;;;-0.73;100.00
40650;BME280;26342;42.826;23.992;2023-02-13T01:00:53;97141.22;;;-0.74;100.00
40650;BME280;26342;42.826;23.992;2023-02-13T01:03:19;97139.41;;;-0.74;100.00
40650;BME280;26342;42.826;23.992;2023-02-13T01:05:58;97144.97;;;-0.77;100.00
40650;BME280;26342;42.826;23.992;2023-02-13T01:08:28;97141.88;;;-0.72;100.00
40650;BME280;26342;42.826;23.992;2023-02-13T01:11:02;97152.16;;;-0.79;100.00
40650;BME280;26342;42.826;23.992;2023-02-13T01:13:28;97153.53;;;-0.85;100.00
40650;BME280;26342;42.826;23.992;2023-02-13T01:15:56;97156.56;;;-0.89;100.00
40650;BME280;26342;42.826;23.992;2023-02-13T01:18:24;97152.84;;;-0.96;100.00
40650;BME280;26342;42.826;23.992;2023-02-13T01:21:00;97160.72;;;-0.87;100.00
40650;BME280;26342;42.826;23.992;2023-02-13T01:23:34;97155.88;;;-0.91;100.00
40650;BME280;26342;42.826;23.992;2023-02-13T01:26:05;97151.19;;;-0.97;100.00
40650;BME280;26342;42.826;23.992;2023-02-13T01:28:39;97158.91;;;-0.96;100.00
40650;BME280;26342;42.826;23.992;2023-02-13T01:31:04;97155.22;;;-0.93;100.00
40650;BME280;26342;42.826;23.992;2023-02-13T01:33:30;97150.78;;;-0.93;100.00
40650;BME280;26342;42.826;23.992;2023-02-13T01:35:55;97150.34;;;-0.88;100.00
40650;BME280;26342;42.826;23.992;2023-02-13T01:38:24;97150.22;;;-0.96;100.00
40650;BME280;26342;42.826;23.992;2023-02-13T01:40:52;97157.00;;;-1.03;100.00
40650;BME280;26342;42.826;23.992;2023-02-13T01:43:19;97149.59;;;-1.08;100.00
40650;BME280;26342;42.826;23.992;2023-02-13T01:45:55;97145.31;;;-1.09;100.00
40650;BME280;26342;42.826;23.992;2023-02-13T01:48:26;97149.69;;;-1.00;100.00
40650;BME280;26342;42.826;23.992;2023-02-13T01:51:02;97149.03;;;-1.02;100.00
40650;BME280;26342;42.826;23.992;2023-02-13T01:53:51;97146.13;;;-0.99;100.00
40650;BME280;26342;42.826;23.992;2023-02-13T01:56:27;97134.94;;;-1.01;100.00
40650;BME280;26342;42.826;23.992;2023-02-13T01:59:00;97131.66;;;-1.13;100.00
40650;BME280;26342;42.826;23.992;2023-02-13T02:01:27;97130.41;;;-1.08;100.00
40650;BME280;26342;42.826;23.992;2023-02-13T02:04:15;97153.00;;;-0.98;100.00
40650;BME280;26342;42.826;23.992;2023-02-13T02:06:54;97128.22;;;-1.13;100.00
40650;BME280;26342;42.826;23.992;2023-02-13T02:09:27;97145.56;;;-0.93;100.00
40650;BME280;26342;42.826;23.992;2023-02-13T02:12:01;97150.66;;;-0.91;100.00
40650;BME280;26342;42.826;23.992;2023-02-13T02:14:37;97149.81;;;-0.92;100.00
40650;BME280;26342;42.826;23.992;2023-02-13T02:17:10;97146.22;;;-0.91;100.00
40650;BME280;26342;42.826;23.992;2023-02-13T02:20:15;97152.97;;;-0.88;100.00
40650;BME280;26342;42.826;23.992;2023-02-13T02:42:12;97157.38;;;-0.89;100.00
40650;BME280;26342;42.826;23.992;2023-02-13T02:45:04;97154.50;;;-0.86;100.00
40650;BME280;26342;42.826;23.992;2023-02-13T02:47:51;97157.38;;;-0.89;100.00
40650;BME280;26342;42.826;23.992;2023-02-13T02:50:38;97160.41;;;-0.83;100.00
40650;BME280;26342;42.826;23.992;2023-02-13T03:01:26;97147.34;;;-0.93;100.00
40650;BME280;26342;42.826;23.992;2023-02-13T03:04:19;97147.09;;;-1.00;100.00
40650;BME280;26342;42.826;23.992;2023-02-13T03:07:07;97112.09;;;-1.18;100.00
40650;BME280;26342;42.826;23.992;2023-02-13T03:09:39;97143.50;;;-0.99;100.00
40650;BME280;26342;42.826;23.992;2023-02-13T03:12:50;97145.00;;;-0.96;100.00
40650;BME280;26342;42.826;23.992;2023-02-13T03:15:31;97131.09;;;-1.06;100.00
40650;BME280;26342;42.826;23.992;2023-02-13T03:18:00;97122.97;;;-1.13;100.00
40650;BME280;26342;42.826;23.992;2023-02-13T03:20:54;97119.81;;;-1.17;100.00
40650;BME280;26342;42.826;23.992;2023-02-13T03:23:59;97128.88;;;-1.11;100.00
40650;BME280;26342;42.826;23.992;2023-02-13T03:26:55;97126.84;;;-1.27;100.00
40650;BME280;26342;42.826;23.992;2023-02-13T03:29:43;97127.13;;;-1.30;100.00
40650;BME280;26342;42.826;23.992;2023-02-13T03:32:42;97131.56;;;-1.30;100.00
40650;BME280;26342;42.826;23.992;2023-02-13T03:35:29;97139.97;;;-1.36;100.00
40650;BME280;26342;42.826;23.992;2023-02-13T03:38:21;97127.28;;;-1.51;100.00
40650;BME280;26342;42.826;23.992;2023-02-13T03:40:50;97141.34;;;-1.42;100.00
40650;BME280;26342;42.826;23.992;2023-02-13T03:46:30;97153.31;;;-1.59;100.00
40650;BME280;26342;42.826;23.992;2023-02-13T03:49:01;97151.69;;;-1.60;100.00
40650;BME280;26342;42.826;23.992;2023-02-13T03:52:10;97147.00;;;-1.56;100.00
40650;BME280;26342;42.826;23.992;2023-02-13T03:54:51;97143.13;;;-1.62;100.00
40650;BME280;26342;42.826;23.992;2023-02-13T03:57:40;97150.16;;;-1.72;100.00
40650;BME280;26342;42.826;23.992;2023-02-13T04:00:31;97151.25;;;-1.75;100.00
40650;BME280;26342;42.826;23.992;2023-02-13T04:05:28;97148.47;;;-1.92;100.00
40650;BME280;26342;42.826;23.992;2023-02-13T04:07:56;97153.28;;;-1.98;100.00
40650;BME280;26342;42.826;23.992;2023-02-13T04:10:24;97152.28;;;-2.16;100.00
40650;BME280;26342;42.826;23.992;2023-02-13T04:15:41;97150.75;;;-2.28;100.00
40650;BME280;26342;42.826;23.992;2023-02-13T04:18:20;97158.16;;;-2.33;100.00
40650;BME280;26342;42.826;23.992;2023-02-13T04:20:46;97162.56;;;-2.34;100.00
40650;BME280;26342;42.826;23.992;2023-02-13T04:23:12;97162.84;;;-2.37;100.00
40650;BME280;26342;42.826;23.992;2023-02-13T04:25:41;97164.09;;;-2.31;100.00
40650;BME280;26342;42.826;23.992;2023-02-13T04:28:08;97162.03;;;-2.28;100.00
40650;BME280;26342;42.826;23.992;2023-02-13T04:30:33;97145.63;;;-2.39;100.00
40650;BME280;26342;42.826;23.992;2023-02-13T04:32:59;97159.13;;;-2.34;100.00
40650;BME280;26342;42.826;23.992;2023-02-13T04:35:25;97154.13;;;-2.47;100.00
40650;BME280;26342;42.826;23.992;2023-02-13T04:37:51;97155.06;;;-2.58;100.00
40650;BME280;26342;42.826;23.992;2023-02-13T04:40:18;97158.63;;;-2.59;100.00
40650;BME280;26342;42.826;23.992;2023-02-13T04:42:46;97163.06;;;-2.49;100.00
40650;BME280;26342;42.826;23.992;2023-02-13T04:45:14;97161.81;;;-2.45;100.00
40650;BME280;26342;42.826;23.992;2023-02-13T04:47:39;97149.31;;;-2.51;100.00
40650;BME280;26342;42.826;23.992;2023-02-13T04:50:05;97152.44;;;-2.58;100.00
40650;BME280;26342;42.826;23.992;2023-02-13T04:52:31;97162.47;;;-2.53;100.00
40650;BME280;26342;42.826;23.992;2023-02-13T04:54:56;97156.31;;;-2.52;100.00
40650;BME280;26342;42.826;23.992;2023-02-13T04:57:22;97139.88;;;-2.64;100.00
40650;BME280;26342;42.826;23.992;2023-02-13T04:59:47;97158.28;;;-2.44;100.00
40650;BME280;26342;42.826;23.992;2023-02-13T05:02:13;97158.66;;;-2.49;100.00
40650;BME280;26342;42.826;23.992;2023-02-13T05:04:38;97166.88;;;-2.54;100.00
40650;BME280;26342;42.826;23.992;2023-02-13T05:07:04;97158.50;;;-2.57;100.00
40650;BME280;26342;42.826;23.992;2023-02-13T05:09:29;97172.25;;;-2.55;100.00
40650;BME280;26342;42.826;23.992;2023-02-13T05:11:55;97165.06;;;-2.63;100.00
40650;BME280;26342;42.826;23.992;2023-02-13T05:14:21;97164.66;;;-2.68;100.00
40650;BME280;26342;42.826;23.992;2023-02-13T05:16:47;97173.03;;;-2.64;100.00
40650;BME280;26342;42.826;23.992;2023-02-13T05:19:14;97178.94;;;-2.62;100.00
40650;BME280;26342;42.826;23.992;2023-02-13T05:21:40;97168.09;;;-2.67;100.00
40650;BME280;26342;42.826;23.992;2023-02-13T05:24:24;97186.94;;;-2.64;100.00
40650;BME280;26342;42.826;23.992;2023-02-13T05:26:50;97182.22;;;-2.70;100.00
40650;BME280;26342;42.826;23.992;2023-02-13T05:29:16;97184.00;;;-2.70;100.00
40650;BME280;26342;42.826;23.992;2023-02-13T05:31:52;97184.97;;;-2.71;100.00
40650;BME280;26342;42.826;23.992;2023-02-13T05:34:19;97179.59;;;-2.70;100.00
40650;BME280;26342;42.826;23.992;2023-02-13T05:36:47;97185.88;;;-2.82;100.00
40650;BME280;26342;42.826;23.992;2023-02-13T05:39:12;97180.78;;;-2.84;100.00
40650;BME280;26342;42.826;23.992;2023-02-13T05:41:41;97190.97;;;-2.81;100.00
40650;BME280;26342;42.826;23.992;2023-02-13T05:44:07;97184.22;;;-2.83;100.00
40650;BME280;26342;42.826;23.992;2023-02-13T05:46:32;97189.78;;;-2.76;100.00
40650;BME280;26342;42.826;23.992;2023-02-13T05:48:58;97187.25;;;-2.78;100.00
40650;BME280;26342;42.826;23.992;2023-02-13T05:51:24;97196.94;;;-2.69;100.00
40650;BME280;26342;42.826;23.992;2023-02-13T05:53:53;97187.84;;;-2.74;100.00
40650;BME280;26342;42.826;23.992;2023-02-13T05:56:18;97197.78;;;-2.68;100.00
40650;BME280;26342;42.826;23.992;2023-02-13T05:58:43;97193.50;;;-2.69;100.00
40650;BME280;26342;42.826;23.992;2023-02-13T06:01:09;97204.91;;;-2.70;100.00
40650;BME280;26342;42.826;23.992;2023-02-13T06:03:35;97207.97;;;-2.65;100.00
40650;BME280;26342;42.826;23.992;2023-02-13T06:06:00;97213.50;;;-2.59;100.00
40650;BME280;26342;42.826;23.992;2023-02-13T06:08:25;97215.22;;;-2.69;100.00
40650;BME280;26342;42.826;23.992;2023-02-13T06:10:51;97194.22;;;-2.88;100.00
40650;BME280;26342;42.826;23.992;2023-02-13T06:13:17;97216.59;;;-2.74;100.00
40650;BME280;26342;42.826;23.992;2023-02-13T06:15:43;97213.72;;;-2.71;100.00
40650;BME280;26342;42.826;23.992;2023-02-13T06:18:09;97221.00;;;-2.75;100.00
40650;BME280;26342;42.826;23.992;2023-02-13T06:20:36;97219.06;;;-2.73;100.00
40650;BME280;26342;42.826;23.992;2023-02-13T06:23:01;97219.06;;;-2.73;100.00
40650;BME280;26342;42.826;23.992;2023-02-13T06:25:27;97217.16;;;-2.71;100.00
40650;BME280;26342;42.826;23.992;2023-02-13T06:27:53;97217.97;;;-2.70;100.00
40650;BME280;26342;42.826;23.992;2023-02-13T06:30:19;97220.72;;;-2.72;100.00
40650;BME280;26342;42.826;23.992;2023-02-13T06:32:45;97222.50;;;-2.72;100.00
40650;BME280;26342;42.826;23.992;2023-02-13T06:35:11;97211.22;;;-2.73;100.00
40650;BME280;26342;42.826;23.992;2023-02-13T06:37:37;97200.72;;;-2.83;100.00
40650;BME280;26342;42.826;23.992;2023-02-13T06:40:07;97215.75;;;-2.75;100.00
40650;BME280;26342;42.826;23.992;2023-02-13T06:42:35;97211.50;;;-2.76;100.00
40650;BME280;26342;42.826;23.992;2023-02-13T06:45:01;97212.38;;;-2.87;100.00
40650;BME280;26342;42.826;23.992;2023-02-13T06:47:26;97217.75;;;-2.88;100.00
40650;BME280;26342;42.826;23.992;2023-02-13T06:49:51;97210.72;;;-2.88;100.00
40650;BME280;26342;42.826;23.992;2023-02-13T06:52:17;97207.44;;;-2.90;100.00
40650;BME280;26342;42.826;23.992;2023-02-13T06:54:43;97213.66;;;-2.81;100.00
40650;BME280;26342;42.826;23.992;2023-02-13T06:57:08;97218.19;;;-2.83;100.00
40650;BME280;26342;42.826;23.992;2023-02-13T06:59:34;97217.38;;;-2.84;100.00
40650;BME280;26342;42.826;23.992;2023-02-13T07:01:59;97210.91;;;-2.79;100.00
40650;BME280;26342;42.826;23.992;2023-02-13T07:04:24;97210.69;;;-2.76;100.00
40650;BME280;26342;42.826;23.992;2023-02-13T07:06:53;97218.28;;;-2.85;100.00
40650;BME280;26342;42.826;23.992;2023-02-13T07:09:19;97207.16;;;-2.87;100.00
40650;BME280;26342;42.826;23.992;2023-02-13T07:11:44;97224.44;;;-2.74;100.00
40650;BME280;26342;42.826;23.992;2023-02-13T07:14:10;97222.66;;;-2.74;100.00
40650;BME280;26342;42.826;23.992;2023-02-13T07:16:35;97229.91;;;-2.77;100.00
40650;BME280;26342;42.826;23.992;2023-02-13T07:19:01;97226.09;;;-2.73;100.00
40650;BME280;26342;42.826;23.992;2023-02-13T07:21:26;97219.75;;;-2.71;100.00
40650;BME280;26342;42.826;23.992;2023-02-13T07:23:52;97226.41;;;-2.67;100.00
40650;BME280;26342;42.826;23.992;2023-02-13T07:26:17;97221.09;;;-2.56;100.00
40650;BME280;26342;42.826;23.992;2023-02-13T07:28:43;97213.09;;;-2.23;100.00
40650;BME280;26342;42.826;23.992;2023-02-13T07:31:08;97213.50;;;-1.78;100.00
40650;BME280;26342;42.826;23.992;2023-02-13T07:33:34;97207.75;;;-1.43;100.00
40650;BME280;26342;42.826;23.992;2023-02-13T07:36:00;97207.09;;;-1.16;100.00
40650;BME280;26342;42.826;23.992;2023-02-13T07:38:31;97202.34;;;-0.83;100.00
40650;BME280;26342;42.826;23.992;2023-02-13T07:41:01;97201.13;;;-0.42;100.00
40650;BME280;26342;42.826;23.992;2023-02-13T07:43:28;97179.94;;;-0.21;100.00
40650;BME280;26342;42.826;23.992;2023-02-13T07:45:57;97192.69;;;0.01;100.00
40650;BME280;26342;42.826;23.992;2023-02-13T07:48:32;97193.47;;;0.29;100.00
40650;BME280;26342;42.826;23.992;2023-02-13T07:51:02;97177.75;;;0.65;100.00
40650;BME280;26342;42.826;23.992;2023-02-13T07:53:28;97185.69;;;0.91;100.00
40650;BME280;26342;42.826;23.992;2023-02-13T07:55:54;97186.78;;;1.06;100.00
40650;BME280;26342;42.826;23.992;2023-02-13T07:58:19;97185.16;;;1.31;100.00
40650;BME280;26342;42.826;23.992;2023-02-13T08:00:44;97184.84;;;1.60;100.00
40650;BME280;26342;42.826;23.992;2023-02-13T08:03:10;97181.72;;;1.90;100.00
40650;BME280;26342;42.826;23.992;2023-02-13T08:05:36;97177.66;;;2.12;100.00
40650;BME280;26342;42.826;23.992;2023-02-13T08:08:01;97178.06;;;2.34;100.00
40650;BME280;26342;42.826;23.992;2023-02-13T08:10:27;97162.63;;;2.63;100.00
40650;BME280;26342;42.826;23.992;2023-02-13T08:13:12;97177.31;;;2.90;100.00
40650;BME280;26342;42.826;23.992;2023-02-13T08:15:38;97167.75;;;3.14;100.00
40650;BME280;26342;42.826;23.992;2023-02-13T08:18:04;97163.41;;;3.37;100.00
40650;BME280;26342;42.826;23.992;2023-02-13T08:20:30;97162.88;;;3.66;100.00
40650;BME280;26342;42.826;23.992;2023-02-13T08:23:02;97165.94;;;3.86;100.00
40650;BME280;26342;42.826;23.992;2023-02-13T08:25:28;97160.22;;;4.13;100.00
40650;BME280;26342;42.826;23.992;2023-02-13T08:27:54;97163.69;;;4.45;96.18
40650;BME280;26342;42.826;23.992;2023-02-13T08:30:19;97153.19;;;4.60;95.39
40650;BME280;26342;42.826;23.992;2023-02-13T08:32:45;97154.16;;;4.82;92.21
40650;BME280;26342;42.826;23.992;2023-02-13T08:35:10;97160.84;;;5.15;86.88
40650;BME280;26342;42.826;23.992;2023-02-13T08:37:36;97160.25;;;5.43;84.76
40650;BME280;26342;42.826;23.992;2023-02-13T08:40:01;97150.03;;;5.84;84.73
40650;BME280;26342;42.826;23.992;2023-02-13T08:42:27;97143.41;;;6.18;85.20
40650;BME280;26342;42.826;23.992;2023-02-13T08:44:52;97150.84;;;6.29;78.71
40650;BME280;26342;42.826;23.992;2023-02-13T08:47:18;97134.69;;;6.60;80.04
40650;BME280;26342;42.826;23.992;2023-02-13T08:49:43;97134.22;;;6.99;77.82
40650;BME280;26342;42.826;23.992;2023-02-13T08:52:09;97121.16;;;7.25;75.81
40650;BME280;26342;42.826;23.992;2023-02-13T08:54:34;97135.13;;;7.34;70.21
40650;BME280;26342;42.826;23.992;2023-02-13T08:57:03;97135.16;;;7.69;69.22
40650;BME280;26342;42.826;23.992;2023-02-13T08:59:28;97117.13;;;7.99;64.76
40650;BME280;26342;42.826;23.992;2023-02-13T09:01:54;97129.75;;;8.31;64.49
40650;BME280;26342;42.826;23.992;2023-02-13T09:04:19;97113.19;;;8.36;60.10
40650;BME280;26342;42.826;23.992;2023-02-13T09:06:44;97123.41;;;8.32;60.66
40650;BME280;26342;42.826;23.992;2023-02-13T09:09:10;97124.97;;;8.61;61.82
40650;BME280;26342;42.826;23.992;2023-02-13T09:11:36;97114.31;;;8.75;60.55
40650;BME280;26342;42.826;23.992;2023-02-13T09:14:01;97119.47;;;8.96;61.34
40650;BME280;26342;42.826;23.992;2023-02-13T09:16:27;97121.75;;;9.26;60.78
40650;BME280;26342;42.826;23.992;2023-02-13T09:18:52;97119.47;;;9.49;58.79
40650;BME280;26342;42.826;23.992;2023-02-13T09:21:19;97122.09;;;9.56;57.43
40650;BME280;26342;42.826;23.992;2023-02-13T09:23:45;97122.69;;;9.71;57.62
40650;BME280;26342;42.826;23.992;2023-02-13T09:26:12;97115.47;;;9.98;55.54
40650;BME280;26342;42.826;23.992;2023-02-13T09:28:39;97112.31;;;10.14;57.24
40650;BME280;26342;42.826;23.992;2023-02-13T09:31:10;97105.72;;;10.30;53.63
40650;BME280;26342;42.826;23.992;2023-02-13T09:33:36;97112.78;;;10.49;50.03
40650;BME280;26342;42.826;23.992;2023-02-13T09:36:10;97114.31;;;10.39;48.92
40650;BME280;26342;42.826;23.992;2023-02-13T09:38:36;97112.78;;;10.56;47.74
40650;BME280;26342;42.826;23.992;2023-02-13T09:41:05;97103.06;;;10.68;48.88
40650;BME280;26342;42.826;23.992;2023-02-13T09:43:36;97098.31;;;11.02;45.64
40650;BME280;26342;42.826;23.992;2023-02-13T09:46:12;97084.09;;;11.08;52.79
40650;BME280;26342;42.826;23.992;2023-02-13T09:48:40;97074.19;;;11.33;44.26
40650;BME280;26342;42.826;23.992;2023-02-13T09:51:09;97075.25;;;11.51;45.16
40650;BME280;26342;42.826;23.992;2023-02-13T09:53:38;97072.88;;;11.61;46.78
40650;BME280;26342;42.826;23.992;2023-02-13T09:56:22;97069.34;;;11.67;45.09
40650;BME280;26342;42.826;23.992;2023-02-13T09:59:03;97062.81;;;11.63;40.55
40650;BME280;26342;42.826;23.992;2023-02-13T10:01:33;97051.59;;;11.72;40.93
40650;BME280;26342;42.826;23.992;2023-02-13T10:07:33;97048.19;;;11.84;41.59
40650;BME280;26342;42.826;23.992;2023-02-13T10:15:51;97042.22;;;12.18;40.28
40650;BME280;26342;42.826;23.992;2023-02-13T10:18:23;97039.88;;;12.40;41.80
40650;BME280;26342;42.826;23.992;2023-02-13T10:20:58;97038.84;;;12.53;40.59
40650;BME280;26342;42.826;23.992;2023-02-13T10:26:29;97014.91;;;12.28;39.13
40650;BME280;26342;42.826;23.992;2023-02-13T10:29:37;97024.53;;;12.17;41.24
40650;BME280;26342;42.826;23.992;2023-02-13T10:32:29;97017.03;;;12.38;40.28
40650;BME280;26342;42.826;23.992;2023-02-13T10:34:58;97015.19;;;12.38;40.98
40650;BME280;26342;42.826;23.992;2023-02-13T10:37:27;97015.78;;;12.40;39.64
40650;BME280;26342;42.826;23.992;2023-02-13T10:39:52;97012.22;;;12.58;38.13
40650;BME280;26342;42.826;23.992;2023-02-13T10:42:25;97012.69;;;12.25;39.78
40650;BME280;26342;42.826;23.992;2023-02-13T10:48:46;97006.66;;;12.29;42.40
40650;BME280;26342;42.826;23.992;2023-02-13T10:50:57;96992.91;;;11.96;37.70
40650;BME280;26342;42.826;23.992;2023-02-13T10:53:41;97003.16;;;11.99;37.92
40650;BME280;26342;42.826;23.992;2023-02-13T10:56:33;97004.63;;;11.77;39.78
40650;BME280;26342;42.826;23.992;2023-02-13T11:01:56;96999.53;;;11.57;38.93
40650;BME280;26342;42.826;23.992;2023-02-13T11:04:26;97001.53;;;11.61;37.22
40650;BME280;26342;42.826;23.992;2023-02-13T11:07:01;96990.47;;;11.39;37.19
40650;BME280;26342;42.826;23.992;2023-02-13T11:09:27;96987.69;;;11.28;37.82
40650;BME280;26342;42.826;23.992;2023-02-13T11:11:55;96996.53;;;10.85;39.11
40650;BME280;26342;42.826;23.992;2023-02-13T11:14:25;96989.28;;;10.92;38.48
40650;BME280;26342;42.826;23.992;2023-02-13T11:17:00;96988.22;;;10.75;36.24
40650;BME280;26342;42.826;23.992;2023-02-13T11:19:39;96974.31;;;10.91;39.33
40650;BME280;26342;42.826;23.992;2023-02-13T11:22:13;96968.53;;;11.12;39.89
40650;BME280;26342;42.826;23.992;2023-02-13T11:24:41;96975.91;;;11.17;37.11
40650;BME280;26342;42.826;23.992;2023-02-13T11:27:14;96970.03;;;11.08;35.66
40650;BME280;26342;42.826;23.992;2023-02-13T11:30:28;96975.28;;;10.72;36.69
40650;BME280;26342;42.826;23.992;2023-02-13T11:32:36;96968.16;;;10.34;39.05
40650;BME280;26342;42.826;23.992;2023-02-13T11:35:32;96964.38;;;10.48;39.25
40650;BME280;26342;42.826;23.992;2023-02-13T11:41:11;96966.22;;;10.48;38.22
40650;BME280;26342;42.826;23.992;2023-02-13T11:43:57;96966.91;;;10.43;40.56
40650;BME280;26342;42.826;23.992;2023-02-13T11:46:28;96953.06;;;10.21;41.97
40650;BME280;26342;42.826;23.992;2023-02-13T11:49:14;96953.53;;;10.12;37.65
40650;BME280;26342;42.826;23.992;2023-02-13T11:51:49;96948.50;;;9.97;40.03
40650;BME280;26342;42.826;23.992;2023-02-13T11:59:42;96950.53;;;9.95;39.62
40650;BME280;26342;42.826;23.992;2023-02-13T12:04:36;96936.34;;;9.63;39.32
40650;BME280;26342;42.826;23.992;2023-02-13T12:07:05;96925.38;;;9.84;40.50
40650;BME280;26342;42.826;23.992;2023-02-13T12:09:39;96927.84;;;9.79;40.59
40650;BME280;26342;42.826;23.992;2023-02-13T12:12:06;96929.34;;;9.68;39.26
40650;BME280;26342;42.826;23.992;2023-02-13T12:14:40;96925.75;;;9.56;41.11
40650;BME280;26342;42.826;23.992;2023-02-13T12:17:11;96931.94;;;9.43;41.74
40650;BME280;26342;42.826;23.992;2023-02-13T12:19:44;96926.03;;;9.35;42.20
40650;BME280;26342;42.826;23.992;2023-02-13T12:22:20;96928.50;;;9.23;42.21
40650;BME280;26342;42.826;23.992;2023-02-13T12:25:28;96920.38;;;9.11;42.23
40650;BME280;26342;42.826;23.992;2023-02-13T12:28:15;96914.81;;;9.13;42.22
40650;BME280;26342;42.826;23.992;2023-02-13T12:41:35;96909.34;;;8.94;45.04
40650;BME280;26342;42.826;23.992;2023-02-13T12:46:57;96904.47;;;8.72;46.04
40650;BME280;26342;42.826;23.992;2023-02-13T12:52:20;96899.16;;;8.58;44.04
40650;BME280;26342;42.826;23.992;2023-02-13T12:57:35;96892.00;;;8.59;43.20
40650;BME280;26342;42.826;23.992;2023-02-13T13:13:55;96874.41;;;8.45;44.44
40650;BME280;26342;42.826;23.992;2023-02-13T13:19:48;96882.41;;;8.31;46.17
40650;BME280;26342;42.826;23.992;2023-02-13T13:22:17;96871.75;;;8.31;43.40
40650;BME280;26342;42.826;23.992;2023-02-13T13:25:31;96868.88;;;8.26;45.88
40650;BME280;26342;42.826;23.992;2023-02-13T13:27:33;96867.44;;;8.10;46.34
40650;BME280;26342;42.826;23.992;2023-02-13T13:30:04;96860.28;;;8.11;46.61
40650;BME280;26342;42.826;23.992;2023-02-13T13:32:30;96872.34;;;7.94;49.70
40650;BME280;26342;42.826;23.992;2023-02-13T13:34:57;96873.16;;;7.74;48.27
40650;BME280;26342;42.826;23.992;2023-02-13T13:37:28;96869.66;;;7.67;49.26
40650;BME280;26342;42.826;23.992;2023-02-13T13:40:02;96870.03;;;7.51;49.49
40650;BME280;26342;42.826;23.992;2023-02-13T13:51:21;96858.13;;;7.27;53.22
40650;BME280;26342;42.826;23.992;2023-02-13T13:56:24;96867.25;;;7.11;52.91
40650;BME280;26342;42.826;23.992;2023-02-13T13:58:50;96863.94;;;6.96;49.01
40650;BME280;26342;42.826;23.992;2023-02-13T14:01:26;96857.19;;;7.00;50.73
40650;BME280;26342;42.826;23.992;2023-02-13T14:04:00;96857.41;;;6.98;52.19
40650;BME280;26342;42.826;23.992;2023-02-13T14:09:05;96851.06;;;6.99;50.36
40650;BME280;26342;42.826;23.992;2023-02-13T14:11:35;96849.44;;;6.98;51.66
40650;BME280;26342;42.826;23.992;2023-02-13T14:14:01;96859.19;;;6.91;52.04
40650;BME280;26342;42.826;23.992;2023-02-13T14:16:46;96851.81;;;6.87;54.42
40650;BME280;26342;42.826;23.992;2023-02-13T14:24:51;96843.78;;;6.67;53.19
40650;BME280;26342;42.826;23.992;2023-02-13T14:27:23;96837.66;;;6.66;53.97
40650;BME280;26342;42.826;23.992;2023-02-13T14:29:49;96842.09;;;6.59;52.65
40650;BME280;26342;42.826;23.992;2023-02-13T14:32:29;96839.03;;;6.56;51.46
40650;BME280;26342;42.826;23.992;2023-02-13T14:34:59;96839.81;;;6.50;53.71
40650;BME280;26342;42.826;23.992;2023-02-13T14:37:37;96836.09;;;6.44;60.18
40650;BME280;26342;42.826;23.992;2023-02-13T14:40:26;96839.75;;;6.43;59.98
40650;BME280;26342;42.826;23.992;2023-02-13T14:45:32;96841.41;;;6.16;68.13
40650;BME280;26342;42.826;23.992;2023-02-13T14:48:05;96844.19;;;6.08;69.95
40650;BME280;26342;42.826;23.992;2023-02-13T14:50:52;96843.22;;;6.09;72.80
40650;BME280;26342;42.826;23.992;2023-02-13T14:53:24;96841.09;;;5.83;73.38
40650;BME280;26342;42.826;23.992;2023-02-13T14:56:04;96850.66;;;5.56;75.19
40650;BME280;26342;42.826;23.992;2023-02-13T14:58:34;96833.28;;;5.11;78.19
40650;BME280;26342;42.826;23.992;2023-02-13T15:01:02;96843.16;;;4.87;80.70
40650;BME280;26342;42.826;23.992;2023-02-13T15:03:50;96846.31;;;4.61;84.06
40650;BME280;26342;42.826;23.992;2023-02-13T15:06:31;96855.44;;;4.59;85.12
40650;BME280;26342;42.826;23.992;2023-02-13T15:09:02;96848.13;;;4.46;87.53
40650;BME280;26342;42.826;23.992;2023-02-13T15:11:41;96846.84;;;4.27;79.64
40650;BME280;26342;42.826;23.992;2023-02-13T15:14:39;96828.84;;;3.93;77.87